NCAR-RAP Real-Time Weather Data

Output produced by METARs form (08 May 2021  16:21 UTC)
found at http://weather.rap.ucar.edu/surface/
 
KALS 081552Z AUTO 10SM CLR 17/M09 A2996 RMK AO2 SLP058 T01721089
KALS 081452Z AUTO 30007G14KT 10SM CLR 16/M09 A2997 RMK AO2 SLP067 T01561094 52003
KALS 081352Z AUTO 22007KT 10SM CLR 13/M08 A2996 RMK AO2 SLP060 T01281083
KALS 081252Z AUTO 21011KT 10SM CLR 09/M07 A2996 RMK AO2 SLP063 T00891072
KALS 081152Z AUTO 21010KT 10SM CLR 05/M06 A2995 RMK AO2 SLP063 T00501061 10106 20039 55005
KALS 081052Z AUTO 21009KT 10SM CLR 05/M03 A2995 RMK AO2 SLP060 T00501033
KALS 080952Z AUTO 22011KT 10SM CLR 06/M01 A2996 RMK AO2 SLP067 T00611006
KALS 080852Z AUTO 23005KT 10SM CLR 06/M01 A2997 RMK AO2 SLP058 T00611006 57011
KALS 080752Z AUTO 21011G17KT 10SM CLR 08/01 A2998 RMK AO2 SLP061 T00830011
KALS 080652Z AUTO 19011KT 10SM CLR 10/01 A3000 RMK AO2 SLP063 T01000011 402560000
KALS 080552Z AUTO 20011KT 10SM CLR 10/01 A3001 RMK AO2 SLP067 T01000011 10228 20100 58002
KALS 080452Z AUTO 20011KT 10SM CLR 10/01 A3003 RMK AO2 SLP086 T01000011
KALS 080352Z AUTO 20011KT 10SM CLR 12/02 A3003 RMK AO2 SLP088 T01220017
KALS 080252Z AUTO 22005KT 10SM CLR 12/01 A3002 RMK AO2 SLP092 T01220006 53004